sensor_id;sensor_type;location;lat;lon;timestamp;P1;durP1;ratioP1;P2;durP2;ratioP2
11655;SDS011;5884;43.618;1.438;2023-02-28T05:47:01;9.20;;;7.20;;
11655;SDS011;5884;43.618;1.438;2023-02-28T05:49:29;11.90;;;7.30;;
11655;SDS011;5884;43.618;1.438;2023-02-28T05:51:56;9.80;;;7.57;;
11655;SDS011;5884;43.618;1.438;2023-02-28T05:54:23;10.00;;;7.43;;
11655;SDS011;5884;43.618;1.438;2023-02-28T05:56:50;10.70;;;7.53;;
11655;SDS011;5884;43.618;1.438;2023-02-28T05:59:18;10.13;;;7.30;;
11655;SDS011;5884;43.618;1.438;2023-02-28T06:01:45;10.70;;;7.40;;
11655;SDS011;5884;43.618;1.438;2023-02-28T06:04:15;11.73;;;8.03;;
11655;SDS011;5884;43.618;1.438;2023-02-28T06:06:44;14.00;;;8.13;;
11655;SDS011;5884;43.618;1.438;2023-02-28T06:09:12;14.83;;;8.27;;
11655;SDS011;5884;43.618;1.438;2023-02-28T06:11:40;11.67;;;8.30;;
11655;SDS011;5884;43.618;1.438;2023-02-28T06:14:09;11.90;;;7.60;;
11655;SDS011;5884;43.618;1.438;2023-02-28T06:16:42;11.00;;;8.07;;
11655;SDS011;5884;43.618;1.438;2023-02-28T06:19:10;12.87;;;7.83;;
11655;SDS011;5884;43.618;1.438;2023-02-28T06:21:39;11.80;;;8.17;;
11655;SDS011;5884;43.618;1.438;2023-02-28T06:24:06;12.13;;;8.83;;
11655;SDS011;5884;43.618;1.438;2023-02-28T06:26:34;12.27;;;7.77;;
11655;SDS011;5884;43.618;1.438;2023-02-28T06:29:02;12.07;;;8.57;;
11655;SDS011;5884;43.618;1.438;2023-02-28T06:31:29;12.20;;;8.60;;
11655;SDS011;5884;43.618;1.438;2023-02-28T06:33:57;10.83;;;8.37;;
11655;SDS011;5884;43.618;1.438;2023-02-28T06:36:24;12.83;;;8.63;;
11655;SDS011;5884;43.618;1.438;2023-02-28T06:38:52;14.33;;;8.90;;
11655;SDS011;5884;43.618;1.438;2023-02-28T06:41:21;11.53;;;8.30;;
11655;SDS011;5884;43.618;1.438;2023-02-28T06:43:49;15.57;;;9.50;;
11655;SDS011;5884;43.618;1.438;2023-02-28T06:46:17;11.60;;;8.33;;
11655;SDS011;5884;43.618;1.438;2023-02-28T06:48:44;12.13;;;9.33;;
11655;SDS011;5884;43.618;1.438;2023-02-28T06:51:13;14.77;;;9.30;;
11655;SDS011;5884;43.618;1.438;2023-02-28T06:53:42;13.10;;;8.83;;
11655;SDS011;5884;43.618;1.438;2023-02-28T06:56:12;12.10;;;8.93;;
11655;SDS011;5884;43.618;1.438;2023-02-28T06:58:41;15.23;;;8.83;;
11655;SDS011;5884;43.618;1.438;2023-02-28T07:01:13;11.50;;;8.53;;
11655;SDS011;5884;43.618;1.438;2023-02-28T07:03:40;13.47;;;9.17;;
11655;SDS011;5884;43.618;1.438;2023-02-28T07:06:07;13.67;;;9.43;;
11655;SDS011;5884;43.618;1.438;2023-02-28T07:08:35;11.80;;;8.77;;
11655;SDS011;5884;43.618;1.438;2023-02-28T07:11:02;14.10;;;9.30;;
11655;SDS011;5884;43.618;1.438;2023-02-28T07:13:32;11.87;;;8.50;;
11655;SDS011;5884;43.618;1.438;2023-02-28T07:15:59;12.43;;;8.80;;
11655;SDS011;5884;43.618;1.438;2023-02-28T07:18:30;13.23;;;8.63;;
11655;SDS011;5884;43.618;1.438;2023-02-28T07:20:57;14.23;;;8.30;;
11655;SDS011;5884;43.618;1.438;2023-02-28T07:23:27;11.00;;;8.50;;
11655;SDS011;5884;43.618;1.438;2023-02-28T07:25:54;14.37;;;8.03;;
11655;SDS011;5884;43.618;1.438;2023-02-28T07:28:21;14.60;;;9.10;;
11655;SDS011;5884;43.618;1.438;2023-02-28T07:30:50;11.53;;;8.70;;
11655;SDS011;5884;43.618;1.438;2023-02-28T07:33:18;10.70;;;8.17;;
11655;SDS011;5884;43.618;1.438;2023-02-28T07:35:45;14.93;;;9.53;;
11655;SDS011;5884;43.618;1.438;2023-02-28T07:38:12;13.07;;;8.47;;
11655;SDS011;5884;43.618;1.438;2023-02-28T07:40:40;12.63;;;8.13;;
11655;SDS011;5884;43.618;1.438;2023-02-28T07:43:07;15.00;;;8.93;;
11655;SDS011;5884;43.618;1.438;2023-02-28T07:45:34;11.63;;;8.73;;
11655;SDS011;5884;43.618;1.438;2023-02-28T07:48:03;15.63;;;9.37;;
11655;SDS011;5884;43.618;1.438;2023-02-28T07:50:30;11.17;;;8.27;;
11655;SDS011;5884;43.618;1.438;2023-02-28T07:52:59;13.70;;;9.67;;
11655;SDS011;5884;43.618;1.438;2023-02-28T07:55:26;13.43;;;9.77;;
11655;SDS011;5884;43.618;1.438;2023-02-28T07:57:54;12.20;;;8.87;;
11655;SDS011;5884;43.618;1.438;2023-02-28T08:00:23;12.43;;;8.20;;
11655;SDS011;5884;43.618;1.438;2023-02-28T08:02:50;12.30;;;8.30;;
11655;SDS011;5884;43.618;1.438;2023-02-28T08:05:19;13.50;;;8.43;;
11655;SDS011;5884;43.618;1.438;2023-02-28T08:07:46;13.00;;;8.43;;
11655;SDS011;5884;43.618;1.438;2023-02-28T08:10:15;14.83;;;8.50;;
11655;SDS011;5884;43.618;1.438;2023-02-28T08:12:43;13.30;;;8.67;;
11655;SDS011;5884;43.618;1.438;2023-02-28T08:15:10;11.47;;;8.63;;
11655;SDS011;5884;43.618;1.438;2023-02-28T08:17:37;10.63;;;8.50;;
11655;SDS011;5884;43.618;1.438;2023-02-28T08:20:05;14.23;;;7.23;;
11655;SDS011;5884;43.618;1.438;2023-02-28T08:22:36;9.77;;;7.20;;
11655;SDS011;5884;43.618;1.438;2023-02-28T08:25:04;11.30;;;7.53;;
11655;SDS011;5884;43.618;1.438;2023-02-28T08:27:32;11.23;;;7.70;;
11655;SDS011;5884;43.618;1.438;2023-02-28T08:29:59;8.67;;;7.17;;
11655;SDS011;5884;43.618;1.438;2023-02-28T08:32:28;10.53;;;6.30;;
11655;SDS011;5884;43.618;1.438;2023-02-28T08:34:55;9.53;;;6.77;;
11655;SDS011;5884;43.618;1.438;2023-02-28T08:37:22;10.20;;;6.97;;
11655;SDS011;5884;43.618;1.438;2023-02-28T08:39:51;9.47;;;6.63;;
11655;SDS011;5884;43.618;1.438;2023-02-28T08:42:18;10.73;;;6.27;;
11655;SDS011;5884;43.618;1.438;2023-02-28T08:44:46;12.13;;;7.13;;
11655;SDS011;5884;43.618;1.438;2023-02-28T08:47:13;14.03;;;6.87;;
11655;SDS011;5884;43.618;1.438;2023-02-28T08:49:40;11.70;;;7.53;;
11655;SDS011;5884;43.618;1.438;2023-02-28T08:52:08;10.10;;;7.40;;
11655;SDS011;5884;43.618;1.438;2023-02-28T08:54:35;10.53;;;6.43;;
11655;SDS011;5884;43.618;1.438;2023-02-28T08:57:04;9.57;;;6.60;;
11655;SDS011;5884;43.618;1.438;2023-02-28T08:59:31;8.67;;;6.23;;
11655;SDS011;5884;43.618;1.438;2023-02-28T09:01:58;7.50;;;6.00;;
11655;SDS011;5884;43.618;1.438;2023-02-28T09:04:26;8.43;;;6.23;;
11655;SDS011;5884;43.618;1.438;2023-02-28T09:06:55;9.07;;;6.43;;
11655;SDS011;5884;43.618;1.438;2023-02-28T09:09:22;11.13;;;7.13;;
11655;SDS011;5884;43.618;1.438;2023-02-28T09:11:50;9.07;;;6.67;;
11655;SDS011;5884;43.618;1.438;2023-02-28T09:14:18;8.53;;;6.50;;
11655;SDS011;5884;43.618;1.438;2023-02-28T09:16:46;10.70;;;7.30;;
11655;SDS011;5884;43.618;1.438;2023-02-28T09:19:13;10.83;;;6.80;;
11655;SDS011;5884;43.618;1.438;2023-02-28T09:21:41;8.73;;;6.50;;
11655;SDS011;5884;43.618;1.438;2023-02-28T09:24:08;9.10;;;6.47;;
11655;SDS011;5884;43.618;1.438;2023-02-28T09:26:36;9.57;;;6.87;;
11655;SDS011;5884;43.618;1.438;2023-02-28T09:29:04;10.00;;;7.17;;
11655;SDS011;5884;43.618;1.438;2023-02-28T09:31:33;9.33;;;6.97;;
11655;SDS011;5884;43.618;1.438;2023-02-28T09:34:00;9.73;;;6.53;;
11655;SDS011;5884;43.618;1.438;2023-02-28T09:36:27;9.47;;;6.70;;
11655;SDS011;5884;43.618;1.438;2023-02-28T09:38:55;7.30;;;6.20;;
11655;SDS011;5884;43.618;1.438;2023-02-28T09:41:23;9.00;;;6.63;;
11655;SDS011;5884;43.618;1.438;2023-02-28T09:43:55;9.30;;;6.00;;
11655;SDS011;5884;43.618;1.438;2023-02-28T09:46:29;9.20;;;6.20;;
11655;SDS011;5884;43.618;1.438;2023-02-28T09:49:03;13.03;;;6.87;;
11655;SDS011;5884;43.618;1.438;2023-02-28T09:51:37;9.07;;;6.50;;
11655;SDS011;5884;43.618;1.438;2023-02-28T09:54:15;8.23;;;5.90;;
11655;SDS011;5884;43.618;1.438;2023-02-28T09:56:45;8.13;;;5.83;;
11655;SDS011;5884;43.618;1.438;2023-02-28T09:59:20;7.77;;;5.67;;
11655;SDS011;5884;43.618;1.438;2023-02-28T10:02:16;8.27;;;6.07;;
11655;SDS011;5884;43.618;1.438;2023-02-28T10:05:17;8.40;;;6.37;;
11655;SDS011;5884;43.618;1.438;2023-02-28T10:07:50;8.67;;;6.30;;
11655;SDS011;5884;43.618;1.438;2023-02-28T10:10:32;8.00;;;6.43;;
11655;SDS011;5884;43.618;1.438;2023-02-28T10:13:06;8.93;;;6.07;;
11655;SDS011;5884;43.618;1.438;2023-02-28T10:15:44;9.97;;;6.10;;
11655;SDS011;5884;43.618;1.438;2023-02-28T10:18:19;7.60;;;6.23;;
11655;SDS011;5884;43.618;1.438;2023-02-28T10:20:51;7.57;;;5.70;;
11655;SDS011;5884;43.618;1.438;2023-02-28T10:23:24;8.00;;;5.93;;
11655;SDS011;5884;43.618;1.438;2023-02-28T10:25:57;10.23;;;5.93;;
11655;SDS011;5884;43.618;1.438;2023-02-28T10:28:32;9.53;;;5.93;;
11655;SDS011;5884;43.618;1.438;2023-02-28T10:30:59;8.13;;;6.33;;
11655;SDS011;5884;43.618;1.438;2023-02-28T10:33:30;8.63;;;6.03;;
11655;SDS011;5884;43.618;1.438;2023-02-28T10:36:00;12.00;;;6.27;;
11655;SDS011;5884;43.618;1.438;2023-02-28T10:38:32;8.17;;;6.67;;
11655;SDS011;5884;43.618;1.438;2023-02-28T10:41:03;8.67;;;5.67;;
11655;SDS011;5884;43.618;1.438;2023-02-28T10:43:33;8.63;;;6.70;;
11655;SDS011;5884;43.618;1.438;2023-02-28T10:46:04;9.77;;;7.07;;
11655;SDS011;5884;43.618;1.438;2023-02-28T10:48:42;7.60;;;6.20;;
11655;SDS011;5884;43.618;1.438;2023-02-28T10:51:14;8.90;;;6.60;;
11655;SDS011;5884;43.618;1.438;2023-02-28T10:53:47;10.60;;;6.80;;
11655;SDS011;5884;43.618;1.438;2023-02-28T10:56:17;8.70;;;6.73;;
11655;SDS011;5884;43.618;1.438;2023-02-28T10:58:52;8.77;;;6.27;;
11655;SDS011;5884;43.618;1.438;2023-02-28T11:01:23;10.83;;;6.80;;
11655;SDS011;5884;43.618;1.438;2023-02-28T11:04:03;10.73;;;6.63;;
11655;SDS011;5884;43.618;1.438;2023-02-28T11:06:43;8.97;;;7.27;;
11655;SDS011;5884;43.618;1.438;2023-02-28T11:09:15;10.07;;;6.73;;
11655;SDS011;5884;43.618;1.438;2023-02-28T11:11:55;8.33;;;6.90;;
11655;SDS011;5884;43.618;1.438;2023-02-28T11:14:24;9.07;;;7.37;;
11655;SDS011;5884;43.618;1.438;2023-02-28T11:16:54;10.93;;;7.30;;
11655;SDS011;5884;43.618;1.438;2023-02-28T11:19:29;9.83;;;7.27;;
11655;SDS011;5884;43.618;1.438;2023-02-28T11:22:05;15.30;;;8.23;;
11655;SDS011;5884;43.618;1.438;2023-02-28T11:24:33;11.40;;;7.87;;
11655;SDS011;5884;43.618;1.438;2023-02-28T11:27:11;11.37;;;9.07;;
11655;SDS011;5884;43.618;1.438;2023-02-28T11:29:52;9.73;;;6.97;;
11655;SDS011;5884;43.618;1.438;2023-02-28T11:32:20;10.60;;;6.97;;
11655;SDS011;5884;43.618;1.438;2023-02-28T11:35:00;9.30;;;7.17;;
11655;SDS011;5884;43.618;1.438;2023-02-28T11:37:31;11.57;;;7.67;;
11655;SDS011;5884;43.618;1.438;2023-02-28T11:39:59;9.87;;;7.17;;
11655;SDS011;5884;43.618;1.438;2023-02-28T11:42:35;9.43;;;7.17;;
11655;SDS011;5884;43.618;1.438;2023-02-28T11:45:19;10.43;;;6.57;;
11655;SDS011;5884;43.618;1.438;2023-02-28T11:48:08;7.37;;;6.10;;
11655;SDS011;5884;43.618;1.438;2023-02-28T11:50:47;12.37;;;7.10;;
11655;SDS011;5884;43.618;1.438;2023-02-28T11:53:33;10.13;;;6.90;;
11655;SDS011;5884;43.618;1.438;2023-02-28T11:56:29;9.53;;;6.73;;
11655;SDS011;5884;43.618;1.438;2023-02-28T11:59:02;11.13;;;6.20;;
11655;SDS011;5884;43.618;1.438;2023-02-28T12:02:04;12.10;;;6.03;;
11655;SDS011;5884;43.618;1.438;2023-02-28T12:04:48;7.40;;;5.93;;
11655;SDS011;5884;43.618;1.438;2023-02-28T12:07:31;8.37;;;6.67;;
11655;SDS011;5884;43.618;1.438;2023-02-28T12:10:11;8.60;;;6.37;;
11655;SDS011;5884;43.618;1.438;2023-02-28T12:12:51;7.40;;;6.17;;
11655;SDS011;5884;43.618;1.438;2023-02-28T12:19:01;7.73;;;6.40;;
11655;SDS011;5884;43.618;1.438;2023-02-28T12:21:46;8.20;;;6.53;;
11655;SDS011;5884;43.618;1.438;2023-02-28T12:24:44;7.97;;;6.30;;
11655;SDS011;5884;43.618;1.438;2023-02-28T12:27:25;7.70;;;6.27;;
11655;SDS011;5884;43.618;1.438;2023-02-28T12:30:00;12.47;;;6.30;;
11655;SDS011;5884;43.618;1.438;2023-02-28T12:32:34;9.27;;;6.37;;
11655;SDS011;5884;43.618;1.438;2023-02-28T12:35:06;9.13;;;6.47;;
11655;SDS011;5884;43.618;1.438;2023-02-28T12:37:41;9.27;;;6.50;;
11655;SDS011;5884;43.618;1.438;2023-02-28T12:40:14;8.43;;;6.13;;
11655;SDS011;5884;43.618;1.438;2023-02-28T12:42:46;8.20;;;6.67;;
11655;SDS011;5884;43.618;1.438;2023-02-28T12:45:18;9.80;;;6.67;;
11655;SDS011;5884;43.618;1.438;2023-02-28T12:47:50;12.93;;;6.90;;
11655;SDS011;5884;43.618;1.438;2023-02-28T12:50:22;9.93;;;7.63;;
11655;SDS011;5884;43.618;1.438;2023-02-28T12:52:58;8.37;;;6.70;;
11655;SDS011;5884;43.618;1.438;2023-02-28T12:55:33;12.60;;;7.13;;
11655;SDS011;5884;43.618;1.438;2023-02-28T12:58:08;9.33;;;6.60;;
11655;SDS011;5884;43.618;1.438;2023-02-28T13:00:46;7.00;;;5.93;;
11655;SDS011;5884;43.618;1.438;2023-02-28T13:03:41;7.50;;;5.97;;
11655;SDS011;5884;43.618;1.438;2023-02-28T13:06:29;7.53;;;6.03;;
11655;SDS011;5884;43.618;1.438;2023-02-28T13:09:13;8.70;;;6.47;;
11655;SDS011;5884;43.618;1.438;2023-02-28T13:11:43;9.73;;;7.37;;
11655;SDS011;5884;43.618;1.438;2023-02-28T13:14:19;8.83;;;7.10;;
11655;SDS011;5884;43.618;1.438;2023-02-28T13:16:54;7.53;;;6.27;;
11655;SDS011;5884;43.618;1.438;2023-02-28T13:19:26;10.00;;;6.33;;
11655;SDS011;5884;43.618;1.438;2023-02-28T13:21:55;7.30;;;5.43;;
11655;SDS011;5884;43.618;1.438;2023-02-28T13:24:43;9.30;;;6.73;;
11655;SDS011;5884;43.618;1.438;2023-02-28T13:33:30;7.00;;;6.20;;
11655;SDS011;5884;43.618;1.438;2023-02-28T13:36:09;8.83;;;6.50;;
11655;SDS011;5884;43.618;1.438;2023-02-28T13:38:50;8.23;;;5.87;;
11655;SDS011;5884;43.618;1.438;2023-02-28T13:44:11;8.57;;;6.23;;
11655;SDS011;5884;43.618;1.438;2023-02-28T13:49:50;6.47;;;5.80;;
11655;SDS011;5884;43.618;1.438;2023-02-28T13:52:20;8.23;;;5.70;;
11655;SDS011;5884;43.618;1.438;2023-02-28T13:55:03;6.37;;;5.17;;
11655;SDS011;5884;43.618;1.438;2023-02-28T13:57:57;6.20;;;5.03;;
11655;SDS011;5884;43.618;1.438;2023-02-28T14:00:45;5.93;;;5.10;;
11655;SDS011;5884;43.618;1.438;2023-02-28T14:03:36;6.33;;;5.20;;
11655;SDS011;5884;43.618;1.438;2023-02-28T14:06:18;7.13;;;5.50;;
11655;SDS011;5884;43.618;1.438;2023-02-28T14:08:55;6.60;;;5.33;;
11655;SDS011;5884;43.618;1.438;2023-02-28T14:11:29;6.73;;;5.40;;
11655;SDS011;5884;43.618;1.438;2023-02-28T14:13:59;8.73;;;5.40;;
11655;SDS011;5884;43.618;1.438;2023-02-28T14:16:34;5.83;;;5.23;;
11655;SDS011;5884;43.618;1.438;2023-02-28T14:19:09;9.57;;;5.60;;
11655;SDS011;5884;43.618;1.438;2023-02-28T14:21:44;12.13;;;6.10;;
11655;SDS011;5884;43.618;1.438;2023-02-28T14:24:41;11.03;;;6.30;;
11655;SDS011;5884;43.618;1.438;2023-02-28T14:27:43;8.93;;;6.60;;
11655;SDS011;5884;43.618;1.438;2023-02-28T14:33:35;7.83;;;5.37;;
11655;SDS011;5884;43.618;1.438;2023-02-28T14:36:18;7.27;;;5.70;;
11655;SDS011;5884;43.618;1.438;2023-02-28T14:38:50;6.73;;;5.60;;
11655;SDS011;5884;43.618;1.438;2023-02-28T14:41:20;9.07;;;5.80;;
11655;SDS011;5884;43.618;1.438;2023-02-28T14:43:52;8.43;;;6.17;;
11655;SDS011;5884;43.618;1.438;2023-02-28T14:46:22;12.60;;;5.67;;
11655;SDS011;5884;43.618;1.438;2023-02-28T14:48:56;8.03;;;5.07;;
11655;SDS011;5884;43.618;1.438;2023-02-28T14:51:24;7.93;;;5.03;;
11655;SDS011;5884;43.618;1.438;2023-02-28T14:53:52;6.90;;;5.10;;
11655;SDS011;5884;43.618;1.438;2023-02-28T14:56:27;7.13;;;5.20;;
11655;SDS011;5884;43.618;1.438;2023-02-28T14:59:01;5.93;;;4.90;;
11655;SDS011;5884;43.618;1.438;2023-02-28T15:01:29;6.33;;;5.23;;
11655;SDS011;5884;43.618;1.438;2023-02-28T15:03:59;7.70;;;4.57;;
11655;SDS011;5884;43.618;1.438;2023-02-28T15:06:29;7.63;;;4.53;;
11655;SDS011;5884;43.618;1.438;2023-02-28T15:09:06;6.03;;;5.17;;
11655;SDS011;5884;43.618;1.438;2023-02-28T15:11:36;6.33;;;5.37;;
11655;SDS011;5884;43.618;1.438;2023-02-28T15:14:05;7.03;;;4.97;;
11655;SDS011;5884;43.618;1.438;2023-02-28T15:16:39;6.90;;;4.90;;
11655;SDS011;5884;43.618;1.438;2023-02-28T15:19:13;5.77;;;4.70;;
11655;SDS011;5884;43.618;1.438;2023-02-28T15:21:48;7.30;;;5.20;;
11655;SDS011;5884;43.618;1.438;2023-02-28T15:24:18;6.30;;;4.90;;
11655;SDS011;5884;43.618;1.438;2023-02-28T15:26:51;5.97;;;4.60;;
11655;SDS011;5884;43.618;1.438;2023-02-28T15:29:23;6.83;;;4.67;;
11655;SDS011;5884;43.618;1.438;2023-02-28T15:31:55;8.37;;;5.37;;
11655;SDS011;5884;43.618;1.438;2023-02-28T15:34:33;6.80;;;4.63;;
11655;SDS011;5884;43.618;1.438;2023-02-28T15:37:06;5.90;;;4.87;;
11655;SDS011;5884;43.618;1.438;2023-02-28T15:39:53;8.23;;;5.00;;
11655;SDS011;5884;43.618;1.438;2023-02-28T15:42:23;6.47;;;4.73;;
11655;SDS011;5884;43.618;1.438;2023-02-28T15:44:56;8.97;;;5.10;;
11655;SDS011;5884;43.618;1.438;2023-02-28T15:47:25;8.23;;;4.90;;
11655;SDS011;5884;43.618;1.438;2023-02-28T15:50:06;7.03;;;4.83;;
11655;SDS011;5884;43.618;1.438;2023-02-28T15:52:38;6.13;;;4.43;;
11655;SDS011;5884;43.618;1.438;2023-02-28T15:55:08;6.20;;;4.90;;
11655;SDS011;5884;43.618;1.438;2023-02-28T15:57:38;10.10;;;4.93;;
11655;SDS011;5884;43.618;1.438;2023-02-28T16:00:09;6.40;;;4.70;;
11655;SDS011;5884;43.618;1.438;2023-02-28T16:02:40;9.53;;;5.90;;
11655;SDS011;5884;43.618;1.438;2023-02-28T16:05:19;7.03;;;5.03;;
11655;SDS011;5884;43.618;1.438;2023-02-28T16:07:53;8.17;;;5.33;;
11655;SDS011;5884;43.618;1.438;2023-02-28T16:10:22;6.63;;;4.77;;
11655;SDS011;5884;43.618;1.438;2023-02-28T16:12:52;6.47;;;5.13;;
11655;SDS011;5884;43.618;1.438;2023-02-28T16:15:21;8.77;;;5.10;;
11655;SDS011;5884;43.618;1.438;2023-02-28T16:17:51;7.00;;;5.33;;
11655;SDS011;5884;43.618;1.438;2023-02-28T16:20:21;6.83;;;5.20;;
11655;SDS011;5884;43.618;1.438;2023-02-28T16:22:51;6.73;;;5.37;;
11655;SDS011;5884;43.618;1.438;2023-02-28T16:25:19;8.57;;;5.83;;
11655;SDS011;5884;43.618;1.438;2023-02-28T16:27:52;7.77;;;5.60;;
11655;SDS011;5884;43.618;1.438;2023-02-28T16:30:22;7.20;;;5.60;;
11655;SDS011;5884;43.618;1.438;2023-02-28T16:32:52;7.53;;;5.33;;
11655;SDS011;5884;43.618;1.438;2023-02-28T16:35:22;7.03;;;5.37;;
11655;SDS011;5884;43.618;1.438;2023-02-28T16:37:50;5.90;;;4.90;;
11655;SDS011;5884;43.618;1.438;2023-02-28T16:40:19;7.87;;;5.20;;
11655;SDS011;5884;43.618;1.438;2023-02-28T16:42:50;7.90;;;5.40;;
11655;SDS011;5884;43.618;1.438;2023-02-28T16:45:21;8.33;;;5.47;;
11655;SDS011;5884;43.618;1.438;2023-02-28T16:47:51;8.60;;;6.33;;
11655;SDS011;5884;43.618;1.438;2023-02-28T16:50:19;9.17;;;6.67;;
11655;SDS011;5884;43.618;1.438;2023-02-28T16:52:49;7.67;;;5.13;;
11655;SDS011;5884;43.618;1.438;2023-02-28T16:55:19;7.70;;;6.17;;
11655;SDS011;5884;43.618;1.438;2023-02-28T16:57:49;8.27;;;5.67;;
11655;SDS011;5884;43.618;1.438;2023-02-28T17:00:19;9.77;;;5.07;;
11655;SDS011;5884;43.618;1.438;2023-02-28T17:02:48;6.73;;;5.13;;
11655;SDS011;5884;43.618;1.438;2023-02-28T17:05:15;8.77;;;5.27;;
11655;SDS011;5884;43.618;1.438;2023-02-28T17:07:45;8.10;;;5.60;;
11655;SDS011;5884;43.618;1.438;2023-02-28T17:10:14;10.10;;;6.70;;
11655;SDS011;5884;43.618;1.438;2023-02-28T17:12:43;10.83;;;6.00;;
11655;SDS011;5884;43.618;1.438;2023-02-28T17:15:11;9.33;;;6.20;;
11655;SDS011;5884;43.618;1.438;2023-02-28T17:17:40;9.40;;;5.83;;
11655;SDS011;5884;43.618;1.438;2023-02-28T17:20:10;6.93;;;5.77;;
11655;SDS011;5884;43.618;1.438;2023-02-28T17:22:40;12.47;;;6.70;;
11655;SDS011;5884;43.618;1.438;2023-02-28T17:25:09;9.07;;;6.30;;
11655;SDS011;5884;43.618;1.438;2023-02-28T17:27:37;8.13;;;5.87;;
11655;SDS011;5884;43.618;1.438;2023-02-28T17:30:09;10.50;;;7.47;;
11655;SDS011;5884;43.618;1.438;2023-02-28T17:32:41;10.87;;;6.00;;
11655;SDS011;5884;43.618;1.438;2023-02-28T17:35:08;9.67;;;5.90;;
11655;SDS011;5884;43.618;1.438;2023-02-28T17:37:36;11.60;;;6.60;;
11655;SDS011;5884;43.618;1.438;2023-02-28T17:40:04;7.47;;;5.70;;
11655;SDS011;5884;43.618;1.438;2023-02-28T17:42:34;10.30;;;6.57;;
11655;SDS011;5884;43.618;1.438;2023-02-28T17:45:01;8.30;;;5.90;;
11655;SDS011;5884;43.618;1.438;2023-02-28T17:47:29;8.23;;;5.20;;
11655;SDS011;5884;43.618;1.438;2023-02-28T17:49:56;7.90;;;5.70;;
11655;SDS011;5884;43.618;1.438;2023-02-28T17:52:23;8.43;;;6.30;;
11655;SDS011;5884;43.618;1.438;2023-02-28T17:54:51;11.53;;;6.83;;
11655;SDS011;5884;43.618;1.438;2023-02-28T17:57:18;8.73;;;6.50;;
11655;SDS011;5884;43.618;1.438;2023-02-28T17:59:46;11.13;;;6.70;;
11655;SDS011;5884;43.618;1.438;2023-02-28T18:02:14;8.50;;;6.60;;
11655;SDS011;5884;43.618;1.438;2023-02-28T18:04:41;9.00;;;6.40;;
11655;SDS011;5884;43.618;1.438;2023-02-28T18:07:09;8.93;;;6.50;;
11655;SDS011;5884;43.618;1.438;2023-02-28T18:09:39;13.10;;;7.53;;
11655;SDS011;5884;43.618;1.438;2023-02-28T18:12:07;13.17;;;8.10;;
11655;SDS011;5884;43.618;1.438;2023-02-28T18:14:34;10.63;;;7.80;;
11655;SDS011;5884;43.618;1.438;2023-02-28T18:17:03;15.80;;;9.50;;
11655;SDS011;5884;43.618;1.438;2023-02-28T18:19:30;14.33;;;9.30;;
11655;SDS011;5884;43.618;1.438;2023-02-28T18:21:58;11.00;;;8.33;;
11655;SDS011;5884;43.618;1.438;2023-02-28T18:24:25;11.77;;;8.00;;
11655;SDS011;5884;43.618;1.438;2023-02-28T18:26:52;12.93;;;7.60;;
11655;SDS011;5884;43.618;1.438;2023-02-28T18:29:21;10.90;;;8.03;;
11655;SDS011;5884;43.618;1.438;2023-02-28T18:31:50;11.73;;;7.33;;
11655;SDS011;5884;43.618;1.438;2023-02-28T18:34:20;11.13;;;7.80;;
11655;SDS011;5884;43.618;1.438;2023-02-28T18:36:48;12.80;;;7.53;;
11655;SDS011;5884;43.618;1.438;2023-02-28T18:39:15;11.50;;;7.53;;
11655;SDS011;5884;43.618;1.438;2023-02-28T18:41:43;10.50;;;7.30;;
11655;SDS011;5884;43.618;1.438;2023-02-28T18:44:11;11.37;;;7.30;;
11655;SDS011;5884;43.618;1.438;2023-02-28T18:46:39;13.57;;;7.47;;
11655;SDS011;5884;43.618;1.438;2023-02-28T18:49:06;12.20;;;7.77;;
11655;SDS011;5884;43.618;1.438;2023-02-28T18:51:35;11.50;;;7.00;;
11655;SDS011;5884;43.618;1.438;2023-02-28T18:54:02;10.83;;;6.90;;
11655;SDS011;5884;43.618;1.438;2023-02-28T18:56:29;7.80;;;5.83;;
11655;SDS011;5884;43.618;1.438;2023-02-28T18:58:57;10.77;;;7.00;;
11655;SDS011;5884;43.618;1.438;2023-02-28T19:01:24;10.17;;;6.37;;
11655;SDS011;5884;43.618;1.438;2023-02-28T19:03:56;11.87;;;6.47;;
11655;SDS011;5884;43.618;1.438;2023-02-28T19:06:25;11.73;;;7.60;;
11655;SDS011;5884;43.618;1.438;2023-02-28T19:08:55;12.33;;;7.60;;
11655;SDS011;5884;43.618;1.438;2023-02-28T19:11:24;10.40;;;7.73;;
11655;SDS011;5884;43.618;1.438;2023-02-28T19:13:52;11.17;;;9.27;;
11655;SDS011;5884;43.618;1.438;2023-02-28T19:16:20;13.00;;;8.87;;
11655;SDS011;5884;43.618;1.438;2023-02-28T19:18:47;13.07;;;10.30;;
11655;SDS011;5884;43.618;1.438;2023-02-28T19:21:16;15.20;;;9.57;;
11655;SDS011;5884;43.618;1.438;2023-02-28T19:23:45;12.73;;;9.03;;
11655;SDS011;5884;43.618;1.438;2023-02-28T19:26:15;10.77;;;8.30;;
11655;SDS011;5884;43.618;1.438;2023-02-28T19:28:45;12.53;;;8.67;;
11655;SDS011;5884;43.618;1.438;2023-02-28T19:31:12;12.10;;;7.83;;
11655;SDS011;5884;43.618;1.438;2023-02-28T19:33:42;11.90;;;8.20;;
11655;SDS011;5884;43.618;1.438;2023-02-28T19:36:10;12.63;;;8.90;;
11655;SDS011;5884;43.618;1.438;2023-02-28T19:38:39;21.10;;;12.80;;
11655;SDS011;5884;43.618;1.438;2023-02-28T19:41:09;13.07;;;8.23;;
11655;SDS011;5884;43.618;1.438;2023-02-28T19:43:39;12.83;;;9.30;;
11655;SDS011;5884;43.618;1.438;2023-02-28T19:46:07;16.27;;;10.23;;
11655;SDS011;5884;43.618;1.438;2023-02-28T19:48:35;14.73;;;9.37;;
11655;SDS011;5884;43.618;1.438;2023-02-28T19:51:04;12.60;;;9.13;;
11655;SDS011;5884;43.618;1.438;2023-02-28T19:53:34;14.27;;;9.40;;
11655;SDS011;5884;43.618;1.438;2023-02-28T19:56:04;16.63;;;10.60;;
11655;SDS011;5884;43.618;1.438;2023-02-28T19:58:32;9.30;;;7.67;;
11655;SDS011;5884;43.618;1.438;2023-02-28T20:01:06;15.27;;;9.67;;
11655;SDS011;5884;43.618;1.438;2023-02-28T20:03:34;11.63;;;8.47;;
11655;SDS011;5884;43.618;1.438;2023-02-28T20:06:02;20.47;;;10.70;;
11655;SDS011;5884;43.618;1.438;2023-02-28T20:08:32;16.63;;;10.37;;
11655;SDS011;5884;43.618;1.438;2023-02-28T20:11:02;13.90;;;9.30;;
11655;SDS011;5884;43.618;1.438;2023-02-28T20:13:30;11.50;;;8.63;;
11655;SDS011;5884;43.618;1.438;2023-02-28T20:15:59;11.27;;;8.83;;
11655;SDS011;5884;43.618;1.438;2023-02-28T20:18:28;13.80;;;9.17;;
11655;SDS011;5884;43.618;1.438;2023-02-28T20:20:56;13.40;;;10.07;;
11655;SDS011;5884;43.618;1.438;2023-02-28T20:23:23;15.30;;;10.77;;
11655;SDS011;5884;43.618;1.438;2023-02-28T20:25:51;16.30;;;10.50;;
11655;SDS011;5884;43.618;1.438;2023-02-28T20:28:19;14.73;;;9.40;;
11655;SDS011;5884;43.618;1.438;2023-02-28T20:30:46;14.30;;;10.27;;
11655;SDS011;5884;43.618;1.438;2023-02-28T20:33:14;13.23;;;9.83;;
11655;SDS011;5884;43.618;1.438;2023-02-28T20:35:42;17.07;;;12.20;;
11655;SDS011;5884;43.618;1.438;2023-02-28T20:38:10;18.50;;;12.40;;
11655;SDS011;5884;43.618;1.438;2023-02-28T20:40:37;19.17;;;13.40;;
11655;SDS011;5884;43.618;1.438;2023-02-28T20:43:05;16.77;;;12.23;;
11655;SDS011;5884;43.618;1.438;2023-02-28T20:45:32;14.93;;;8.60;;
11655;SDS011;5884;43.618;1.438;2023-02-28T20:47:59;13.67;;;9.00;;
11655;SDS011;5884;43.618;1.438;2023-02-28T20:50:27;21.67;;;12.17;;
11655;SDS011;5884;43.618;1.438;2023-02-28T20:52:56;13.73;;;10.40;;
11655;SDS011;5884;43.618;1.438;2023-02-28T20:55:23;19.60;;;12.43;;
11655;SDS011;5884;43.618;1.438;2023-02-28T20:57:50;20.20;;;12.40;;
11655;SDS011;5884;43.618;1.438;2023-02-28T21:00:18;23.33;;;14.87;;
11655;SDS011;5884;43.618;1.438;2023-02-28T21:02:46;20.03;;;13.87;;
11655;SDS011;5884;43.618;1.438;2023-02-28T21:05:13;19.30;;;12.83;;
11655;SDS011;5884;43.618;1.438;2023-02-28T21:07:41;17.83;;;11.80;;
11655;SDS011;5884;43.618;1.438;2023-02-28T21:10:10;16.27;;;11.33;;
11655;SDS011;5884;43.618;1.438;2023-02-28T21:12:38;20.73;;;13.60;;
11655;SDS011;5884;43.618;1.438;2023-02-28T21:15:05;17.33;;;12.50;;
11655;SDS011;5884;43.618;1.438;2023-02-28T21:17:34;17.23;;;12.30;;
11655;SDS011;5884;43.618;1.438;2023-02-28T21:20:01;24.00;;;13.63;;
11655;SDS011;5884;43.618;1.438;2023-02-28T21:22:29;15.20;;;11.33;;